Time,TemperatureF,DewpointF,PressureIn,WindDirection,WindDirectionDegrees,WindSpeedMPH,WindSpeedGustMPH,Humidity,HourlyPrecipIn,Conditions,Clouds,dailyrainin,SolarRadiationWatts/m^2,SoftwareType,DateUTC
2013-02-12 00:01:00,25.0,18.0,-100.00,West,265,5.0,8.0,73,0.00,,,0.00,0.000000,,2013-02-12 07:01:00,
2013-02-12 00:11:00,25.0,18.0,-100.00,West,265,5.0,8.0,73,0.00,,,0.00,0.000000,,2013-02-12 07:11:00,
2013-02-12 00:21:00,25.0,18.0,-100.00,West,265,5.0,8.0,73,0.00,,,0.00,0.000000,,2013-02-12 07:21:00,
2013-02-12 00:52:00,25.0,17.0,-100.00,West,261,7.0,9.0,72,0.00,,,0.00,0.000000,,2013-02-12 07:52:00,
2013-02-12 01:01:00,25.0,17.0,-100.00,West,261,7.0,9.0,72,0.00,,,0.00,0.000000,,2013-02-12 08:01:00,
2013-02-12 01:11:00,25.0,17.0,-100.00,West,261,7.0,9.0,72,0.00,,,0.00,0.000000,,2013-02-12 08:11:00,
2013-02-12 01:21:00,25.0,17.0,-100.00,West,261,7.0,9.0,72,0.00,,,0.00,0.000000,,2013-02-12 08:21:00,
2013-02-12 01:42:00,26.0,18.0,-100.00,WSW,252,6.0,12.0,71,0.00,,,0.00,0.000000,,2013-02-12 08:42:00,
2013-02-12 01:52:00,26.0,18.0,-100.00,WSW,252,6.0,12.0,71,0.00,,,0.00,0.000000,,2013-02-12 08:52:00,
2013-02-12 02:01:00,26.0,18.0,-100.00,WSW,252,6.0,12.0,71,0.00,,,0.00,0.000000,,2013-02-12 09:01:00,
2013-02-12 02:11:00,26.0,18.0,-100.00,WSW,252,6.0,12.0,71,0.00,,,0.00,0.000000,,2013-02-12 09:11:00,
2013-02-12 02:21:00,26.0,18.0,-100.00,WSW,252,6.0,12.0,71,0.00,,,0.00,0.000000,,2013-02-12 09:21:00,
2013-02-12 02:52:00,27.0,19.0,-100.00,West,262,6.0,14.0,72,0.00,,,0.00,0.000000,,2013-02-12 09:52:00,
2013-02-12 03:01:00,27.0,19.0,-100.00,West,262,6.0,14.0,72,0.00,,,0.00,0.000000,,2013-02-12 10:01:00,
2013-02-12 03:11:00,27.0,19.0,-100.00,West,262,6.0,14.0,72,0.00,,,0.00,0.000000,,2013-02-12 10:11:00,
2013-02-12 03:21:00,27.0,19.0,-100.00,West,262,6.0,14.0,72,0.00,,,0.00,0.000000,,2013-02-12 10:21:00,
2013-02-12 03:52:00,27.0,20.0,-100.00,West,259,5.0,13.0,74,0.00,,,0.00,0.000000,,2013-02-12 10:52:00,
2013-02-12 04:01:00,27.0,20.0,-100.00,West,259,5.0,13.0,74,0.00,,,0.00,0.000000,,2013-02-12 11:01:00,
2013-02-12 04:11:00,27.0,20.0,-100.00,West,259,5.0,13.0,74,0.00,,,0.00,0.000000,,2013-02-12 11:11:00,
2013-02-12 04:21:00,27.0,20.0,-100.00,West,259,5.0,13.0,74,0.00,,,0.00,0.000000,,2013-02-12 11:21:00,
2013-02-12 04:52:00,27.0,20.0,-100.00,West,263,6.0,13.0,74,0.00,,,0.00,0.000000,,2013-02-12 11:52:00,
2013-02-12 05:01:00,27.0,20.0,-100.00,West,263,6.0,13.0,74,0.00,,,0.00,0.000000,,2013-02-12 12:01:00,
2013-02-12 05:11:00,27.0,20.0,-100.00,West,263,6.0,13.0,74,0.00,,,0.00,0.000000,,2013-02-12 12:11:00,
2013-02-12 05:21:00,27.0,20.0,-100.00,West,263,6.0,13.0,74,0.00,,,0.00,0.000000,,2013-02-12 12:21:00,
2013-02-12 05:53:00,27.0,21.0,-100.00,West,263,7.0,13.0,77,0.00,,,0.00,0.000000,,2013-02-12 12:53:00,
2013-02-12 06:01:00,27.0,21.0,-100.00,West,263,7.0,13.0,77,0.00,,,0.00,0.000000,,2013-02-12 13:01:00,
2013-02-12 06:11:00,27.0,21.0,-100.00,West,263,7.0,13.0,77,0.00,,,0.00,0.000000,,2013-02-12 13:11:00,
2013-02-12 06:22:00,27.0,21.0,-100.00,West,263,7.0,13.0,77,0.00,,,0.00,0.000000,,2013-02-12 13:22:00,
2013-02-12 06:42:00,25.0,19.0,-100.00,WSW,257,5.0,14.0,78,0.00,,,-99.99,0.000000,,2013-02-12 13:42:00,
2013-02-12 06:52:00,25.0,19.0,-100.00,WSW,257,5.0,14.0,78,0.00,,,-99.99,0.000000,,2013-02-12 13:52:00,
2013-02-12 07:01:00,25.0,19.0,-100.00,WSW,257,5.0,14.0,78,0.00,,,-99.99,0.000000,,2013-02-12 14:01:00,
2013-02-12 07:12:00,25.0,19.0,-100.00,WSW,257,5.0,14.0,78,0.00,,,-99.99,0.000000,,2013-02-12 14:12:00,
2013-02-12 07:21:00,25.0,19.0,-100.00,WSW,257,5.0,14.0,78,0.00,,,-99.99,0.000000,,2013-02-12 14:21:00,
2013-02-12 07:52:00,25.0,19.0,-100.00,West,261,6.0,17.0,76,0.00,,,0.00,0.000000,,2013-02-12 14:52:00,
2013-02-12 08:02:00,25.0,19.0,-100.00,West,261,6.0,17.0,76,0.00,,,0.00,0.000000,,2013-02-12 15:02:00,
2013-02-12 08:11:00,25.0,19.0,-100.00,West,261,6.0,17.0,76,0.00,,,0.00,0.000000,,2013-02-12 15:11:00,
2013-02-12 08:21:00,25.0,19.0,-100.00,West,261,6.0,17.0,76,0.00,,,0.00,0.000000,,2013-02-12 15:21:00,
2013-02-12 08:42:00,27.0,19.0,-100.00,West,260,5.0,13.0,72,0.00,,,0.00,4.000000,,2013-02-12 15:42:00,
2013-02-12 08:52:00,27.0,19.0,-100.00,West,260,5.0,13.0,72,0.00,,,0.00,4.000000,,2013-02-12 15:52:00,
2013-02-12 09:01:00,27.0,19.0,-100.00,West,260,5.0,13.0,72,0.00,,,0.00,4.000000,,2013-02-12 16:01:00,
2013-02-12 09:11:00,27.0,19.0,-100.00,West,260,5.0,13.0,72,0.00,,,0.00,4.000000,,2013-02-12 16:11:00,
2013-02-12 09:22:00,27.0,19.0,-100.00,West,260,5.0,13.0,72,0.00,,,0.00,4.000000,,2013-02-12 16:22:00,
2013-02-12 09:52:00,30.0,18.0,-100.00,West,265,7.0,13.0,60,0.00,,,-99.99,56.000000,,2013-02-12 16:52:00,
2013-02-12 10:01:00,30.0,18.0,-100.00,West,265,7.0,13.0,60,0.00,,,-99.99,56.000000,,2013-02-12 17:01:00,
2013-02-12 10:12:00,30.0,18.0,-100.00,West,265,7.0,13.0,60,0.00,,,-99.99,56.000000,,2013-02-12 17:12:00,
2013-02-12 10:21:00,30.0,18.0,-100.00,West,265,7.0,13.0,60,0.00,,,-99.99,56.000000,,2013-02-12 17:21:00,
2013-02-12 10:52:00,34.0,20.0,-100.00,West,267,7.0,15.0,55,0.00,,,0.00,250.000000,,2013-02-12 17:52:00,
2013-02-12 11:01:00,34.0,20.0,-100.00,West,267,7.0,15.0,55,0.00,,,0.00,250.000000,,2013-02-12 18:01:00,
2013-02-12 11:11:00,34.0,20.0,-100.00,West,267,7.0,15.0,55,0.00,,,0.00,250.000000,,2013-02-12 18:11:00,
2013-02-12 11:23:00,34.0,20.0,-100.00,West,267,7.0,15.0,55,0.00,,,0.00,250.000000,,2013-02-12 18:23:00,
2013-02-12 11:42:00,37.0,18.0,-100.00,West,270,5.0,17.0,46,0.00,,,0.00,330.000000,,2013-02-12 18:42:00,
2013-02-12 11:52:00,37.0,18.0,-100.00,West,270,5.0,17.0,46,0.00,,,0.00,330.000000,,2013-02-12 18:52:00,
2013-02-12 12:02:00,37.0,18.0,-100.00,West,270,5.0,17.0,46,0.00,,,0.00,330.000000,,2013-02-12 19:02:00,
2013-02-12 12:11:00,37.0,18.0,-100.00,West,270,5.0,17.0,46,0.00,,,0.00,330.000000,,2013-02-12 19:11:00,
2013-02-12 12:21:00,37.0,18.0,-100.00,West,270,5.0,17.0,46,0.00,,,0.00,330.000000,,2013-02-12 19:21:00,
2013-02-12 12:52:00,42.0,22.0,-100.00,West,272,7.0,17.0,44,0.00,,,-99.99,523.000000,,2013-02-12 19:52:00,
2013-02-12 13:01:00,42.0,22.0,-100.00,West,272,7.0,17.0,44,0.00,,,-99.99,523.000000,,2013-02-12 20:01:00,
2013-02-12 13:11:00,42.0,22.0,-100.00,West,272,7.0,17.0,44,0.00,,,-99.99,523.000000,,2013-02-12 20:11:00,
2013-02-12 13:21:00,42.0,22.0,-100.00,West,272,7.0,17.0,44,0.00,,,-99.99,523.000000,,2013-02-12 20:21:00,
2013-02-12 13:52:00,44.0,24.0,-100.00,West,268,5.0,17.0,45,0.00,,,0.00,598.000000,,2013-02-12 20:52:00,
2013-02-12 14:01:00,44.0,24.0,-100.00,West,268,5.0,17.0,45,0.00,,,0.00,598.000000,,2013-02-12 21:01:00,
2013-02-12 14:11:00,44.0,24.0,-100.00,West,268,5.0,17.0,45,0.00,,,0.00,598.000000,,2013-02-12 21:11:00,
2013-02-12 14:21:00,44.0,24.0,-100.00,West,268,5.0,17.0,45,0.00,,,0.00,598.000000,,2013-02-12 21:21:00,
2013-02-12 14:52:00,45.0,23.0,-100.00,West,267,6.0,15.0,41,0.00,,,0.00,599.000000,,2013-02-12 21:52:00,
2013-02-12 15:01:00,45.0,23.0,-100.00,West,267,6.0,15.0,41,0.00,,,0.00,599.000000,,2013-02-12 22:01:00,
2013-02-12 15:12:00,45.0,23.0,-100.00,West,267,6.0,15.0,41,0.00,,,0.00,599.000000,,2013-02-12 22:12:00,
2013-02-12 15:21:00,45.0,23.0,-100.00,West,267,6.0,15.0,41,0.00,,,0.00,599.000000,,2013-02-12 22:21:00,
2013-02-12 15:52:00,48.0,26.0,-100.00,West,276,5.0,16.0,42,0.00,,,0.00,524.000000,,2013-02-12 22:52:00,
2013-02-12 16:01:00,48.0,26.0,-100.00,West,276,5.0,16.0,42,0.00,,,0.00,524.000000,,2013-02-12 23:01:00,
2013-02-12 16:11:00,48.0,26.0,-100.00,West,276,5.0,16.0,42,0.00,,,0.00,524.000000,,2013-02-12 23:11:00,
2013-02-12 16:21:00,48.0,26.0,-100.00,West,276,5.0,16.0,42,0.00,,,0.00,524.000000,,2013-02-12 23:21:00,
2013-02-12 16:52:00,47.0,29.0,-100.00,West,279,4.0,14.0,49,0.00,,,0.00,380.000000,,2013-02-12 23:52:00,
2013-02-12 17:02:00,47.0,29.0,-100.00,West,279,4.0,14.0,49,0.00,,,0.00,380.000000,,2013-02-13 00:02:00,
2013-02-12 17:11:00,47.0,29.0,-100.00,West,279,4.0,14.0,49,0.00,,,0.00,380.000000,,2013-02-13 00:11:00,
2013-02-12 17:21:00,47.0,29.0,-100.00,West,279,4.0,14.0,49,0.00,,,0.00,380.000000,,2013-02-13 00:21:00,
2013-02-12 17:52:00,41.0,28.0,-100.00,West,274,4.0,12.0,59,-99.99,,,0.00,208.000000,,2013-02-13 00:52:00,
2013-02-12 18:01:00,41.0,28.0,-100.00,West,274,4.0,12.0,59,-99.99,,,0.00,208.000000,,2013-02-13 01:01:00,
2013-02-12 18:11:00,41.0,28.0,-100.00,West,274,4.0,12.0,59,-99.99,,,0.00,208.000000,,2013-02-13 01:11:00,
2013-02-12 18:21:00,41.0,28.0,-100.00,West,274,4.0,12.0,59,-99.99,,,0.00,208.000000,,2013-02-13 01:21:00,
2013-02-12 19:11:00,38.0,27.0,-100.00,West,274,1.0,13.0,65,0.00,,,0.00,24.000000,,2013-02-13 02:11:00,
2013-02-12 19:22:00,38.0,27.0,-100.00,West,274,1.0,13.0,65,0.00,,,0.00,24.000000,,2013-02-13 02:22:00,
2013-02-12 19:42:00,34.0,25.0,-100.00,West,277,4.0,7.0,68,0.00,,,0.00,0.000000,,2013-02-13 02:42:00,
2013-02-12 19:52:00,34.0,25.0,-100.00,West,277,4.0,7.0,68,0.00,,,0.00,0.000000,,2013-02-13 02:52:00,
2013-02-12 20:01:00,34.0,25.0,-100.00,West,277,4.0,7.0,68,0.00,,,0.00,0.000000,,2013-02-13 03:01:00,
2013-02-12 20:11:00,34.0,25.0,-100.00,West,277,4.0,7.0,68,0.00,,,0.00,0.000000,,2013-02-13 03:11:00,
2013-02-12 20:21:00,34.0,25.0,-100.00,West,277,4.0,7.0,68,0.00,,,0.00,0.000000,,2013-02-13 03:21:00,
2013-02-12 20:52:00,34.0,23.0,-100.00,WSW,241,1.0,7.0,65,0.00,,,0.00,0.000000,,2013-02-13 03:52:00,
2013-02-12 21:01:00,34.0,23.0,-100.00,WSW,241,1.0,7.0,65,0.00,,,0.00,0.000000,,2013-02-13 04:01:00,
2013-02-12 21:11:00,34.0,23.0,-100.00,WSW,241,1.0,7.0,65,0.00,,,0.00,0.000000,,2013-02-13 04:11:00,
2013-02-12 21:21:00,34.0,23.0,-100.00,WSW,241,1.0,7.0,65,0.00,,,0.00,0.000000,,2013-02-13 04:21:00,
2013-02-12 21:52:00,34.0,26.0,-100.00,WSW,243,3.0,8.0,72,0.00,,,0.00,0.000000,,2013-02-13 04:52:00,
2013-02-12 22:01:00,34.0,26.0,-100.00,WSW,243,3.0,8.0,72,0.00,,,0.00,0.000000,,2013-02-13 05:01:00,
2013-02-12 22:11:00,34.0,26.0,-100.00,WSW,243,3.0,8.0,72,0.00,,,0.00,0.000000,,2013-02-13 05:11:00,
2013-02-12 22:22:00,34.0,26.0,-100.00,WSW,243,3.0,8.0,72,0.00,,,0.00,0.000000,,2013-02-13 05:22:00,
2013-02-12 22:52:00,32.0,26.0,-100.00,WSW,237,3.0,7.0,77,0.00,,,0.00,0.000000,,2013-02-13 05:52:00,
2013-02-12 23:02:00,32.0,26.0,-100.00,WSW,237,3.0,7.0,77,0.00,,,0.00,0.000000,,2013-02-13 06:02:00,
2013-02-12 23:11:00,32.0,26.0,-100.00,WSW,237,3.0,7.0,77,0.00,,,0.00,0.000000,,2013-02-13 06:11:00,
2013-02-12 23:21:00,32.0,26.0,-100.00,WSW,237,3.0,7.0,77,0.00,,,0.00,0.000000,,2013-02-13 06:21:00,
2013-02-12 23:42:00,32.0,24.0,-100.00,WSW,251,3.0,6.0,72,0.00,,,0.00,0.000000,,2013-02-13 06:42:00,
2013-02-12 23:52:00,32.0,24.0,-100.00,WSW,251,3.0,6.0,72,0.00,,,0.00,0.000000,,2013-02-13 06:52:00,